Аэропорт: Ульяновск-Восточный. Ульяновск

ICAO: UWLW

METAR:
2019/03/26 13:00
UWLW 261300Z 16008MPS 8000 NSC 03/M03 Q1011 R20/CLRD60 NOSIG RMK QFE753
METAR:
2019/03/26 12:21
TAF UWLW 261045Z 2612/2712 16003G09MPS 8000 BKN015 
      TEMPO 2612/2624 22008G16MPS 2100 -RASN BR OVC007 
      TEMPO 2700/2712 19005G10MPS 3100 -RASN BR OVC007